sensor_id;sensor_type;location;lat;lon;timestamp;P1;durP1;ratioP1;P2;durP2;ratioP2
29206;SDS011;16247;50.840;4.382;2022-11-18T00:02:22;5.60;;;2.35;;
29206;SDS011;16247;50.840;4.382;2022-11-18T00:04:47;6.00;;;2.10;;
29206;SDS011;16247;50.840;4.382;2022-11-18T00:07:13;6.28;;;2.03;;
29206;SDS011;16247;50.840;4.382;2022-11-18T00:09:39;6.70;;;2.10;;
29206;SDS011;16247;50.840;4.382;2022-11-18T00:12:04;3.63;;;1.80;;
29206;SDS011;16247;50.840;4.382;2022-11-18T00:14:48;4.25;;;1.98;;
29206;SDS011;16247;50.840;4.382;2022-11-18T00:17:16;5.95;;;2.25;;
29206;SDS011;16247;50.840;4.382;2022-11-18T00:19:42;4.47;;;2.17;;
29206;SDS011;16247;50.840;4.382;2022-11-18T00:22:10;3.53;;;1.83;;
29206;SDS011;16247;50.840;4.382;2022-11-18T00:24:37;5.75;;;2.15;;
29206;SDS011;16247;50.840;4.382;2022-11-18T00:27:02;7.03;;;2.95;;
29206;SDS011;16247;50.840;4.382;2022-11-18T00:29:29;5.15;;;2.45;;
29206;SDS011;16247;50.840;4.382;2022-11-18T00:31:56;7.57;;;2.50;;
29206;SDS011;16247;50.840;4.382;2022-11-18T00:34:22;6.78;;;2.45;;
29206;SDS011;16247;50.840;4.382;2022-11-18T00:36:49;6.38;;;2.13;;
29206;SDS011;16247;50.840;4.382;2022-11-18T00:39:16;7.30;;;2.15;;
29206;SDS011;16247;50.840;4.382;2022-11-18T00:41:43;3.75;;;1.58;;
29206;SDS011;16247;50.840;4.382;2022-11-18T00:44:27;5.03;;;1.85;;
29206;SDS011;16247;50.840;4.382;2022-11-18T00:46:54;4.45;;;2.13;;
29206;SDS011;16247;50.840;4.382;2022-11-18T00:49:20;6.18;;;1.95;;
29206;SDS011;16247;50.840;4.382;2022-11-18T00:51:46;6.50;;;1.75;;
29206;SDS011;16247;50.840;4.382;2022-11-18T00:54:13;4.88;;;1.98;;
29206;SDS011;16247;50.840;4.382;2022-11-18T00:59:07;3.63;;;1.67;;
29206;SDS011;16247;50.840;4.382;2022-11-18T01:01:33;3.45;;;1.80;;
29206;SDS011;16247;50.840;4.382;2022-11-18T01:03:59;4.03;;;1.70;;
29206;SDS011;16247;50.840;4.382;2022-11-18T01:06:25;3.67;;;2.15;;
29206;SDS011;16247;50.840;4.382;2022-11-18T01:08:50;6.63;;;1.80;;
29206;SDS011;16247;50.840;4.382;2022-11-18T01:11:17;6.35;;;2.33;;
29206;SDS011;16247;50.840;4.382;2022-11-18T01:14:01;4.55;;;2.08;;
29206;SDS011;16247;50.840;4.382;2022-11-18T01:16:27;4.50;;;2.00;;
29206;SDS011;16247;50.840;4.382;2022-11-18T01:18:54;5.27;;;1.80;;
29206;SDS011;16247;50.840;4.382;2022-11-18T01:21:23;5.85;;;1.48;;
29206;SDS011;16247;50.840;4.382;2022-11-18T01:23:48;5.65;;;2.05;;
29206;SDS011;16247;50.840;4.382;2022-11-18T01:26:14;4.65;;;1.58;;
29206;SDS011;16247;50.840;4.382;2022-11-18T01:28:41;2.78;;;1.50;;
29206;SDS011;16247;50.840;4.382;2022-11-18T01:31:09;5.63;;;1.83;;
29206;SDS011;16247;50.840;4.382;2022-11-18T01:33:39;4.13;;;1.33;;
29206;SDS011;16247;50.840;4.382;2022-11-18T01:36:13;7.57;;;2.00;;
29206;SDS011;16247;50.840;4.382;2022-11-18T01:38:40;2.65;;;1.23;;
29206;SDS011;16247;50.840;4.382;2022-11-18T01:41:06;2.42;;;1.50;;
29206;SDS011;16247;50.840;4.382;2022-11-18T01:43:45;3.35;;;1.52;;
29206;SDS011;16247;50.840;4.382;2022-11-18T01:46:15;4.70;;;1.92;;
29206;SDS011;16247;50.840;4.382;2022-11-18T01:48:41;4.95;;;1.52;;
29206;SDS011;16247;50.840;4.382;2022-11-18T01:51:10;6.47;;;1.95;;
29206;SDS011;16247;50.840;4.382;2022-11-18T01:53:45;4.90;;;1.60;;
29206;SDS011;16247;50.840;4.382;2022-11-18T01:59:29;5.88;;;1.90;;
29206;SDS011;16247;50.840;4.382;2022-11-18T02:01:59;2.83;;;1.58;;
29206;SDS011;16247;50.840;4.382;2022-11-18T02:04:38;3.92;;;2.08;;
29206;SDS011;16247;50.840;4.382;2022-11-18T02:07:10;8.23;;;1.65;;
29206;SDS011;16247;50.840;4.382;2022-11-18T02:09:38;4.45;;;1.60;;
29206;SDS011;16247;50.840;4.382;2022-11-18T02:12:04;4.93;;;1.98;;
29206;SDS011;16247;50.840;4.382;2022-11-18T02:14:33;5.53;;;2.03;;
29206;SDS011;16247;50.840;4.382;2022-11-18T02:38:58;6.60;;;1.67;;
29206;SDS011;16247;50.840;4.382;2022-11-18T02:41:29;5.57;;;2.13;;
29206;SDS011;16247;50.840;4.382;2022-11-18T02:43:58;2.80;;;1.85;;
29206;SDS011;16247;50.840;4.382;2022-11-18T02:46:31;3.42;;;1.70;;
29206;SDS011;16247;50.840;4.382;2022-11-18T02:49:03;3.67;;;1.77;;
29206;SDS011;16247;50.840;4.382;2022-11-18T02:51:33;6.72;;;1.80;;
29206;SDS011;16247;50.840;4.382;2022-11-18T02:54:02;2.83;;;1.60;;
29206;SDS011;16247;50.840;4.382;2022-11-18T02:56:30;6.35;;;2.85;;
29206;SDS011;16247;50.840;4.382;2022-11-18T02:58:58;4.60;;;2.08;;
29206;SDS011;16247;50.840;4.382;2022-11-18T03:01:25;4.45;;;2.10;;
29206;SDS011;16247;50.840;4.382;2022-11-18T03:03:54;4.65;;;2.63;;
29206;SDS011;16247;50.840;4.382;2022-11-18T03:12:17;4.97;;;2.03;;
29206;SDS011;16247;50.840;4.382;2022-11-18T03:17:22;5.75;;;1.80;;
29206;SDS011;16247;50.840;4.382;2022-11-18T03:20:06;6.05;;;2.15;;
29206;SDS011;16247;50.840;4.382;2022-11-18T03:22:49;6.43;;;2.65;;
29206;SDS011;16247;50.840;4.382;2022-11-18T03:28:17;6.78;;;2.22;;
29206;SDS011;16247;50.840;4.382;2022-11-18T03:31:37;5.72;;;1.65;;
29206;SDS011;16247;50.840;4.382;2022-11-18T03:33:47;5.38;;;1.80;;
29206;SDS011;16247;50.840;4.382;2022-11-18T03:36:18;6.85;;;2.15;;
29206;SDS011;16247;50.840;4.382;2022-11-18T03:38:49;8.88;;;2.40;;
29206;SDS011;16247;50.840;4.382;2022-11-18T03:41:19;5.18;;;2.38;;
29206;SDS011;16247;50.840;4.382;2022-11-18T03:43:48;6.47;;;2.40;;
29206;SDS011;16247;50.840;4.382;2022-11-18T03:46:22;6.80;;;2.30;;
29206;SDS011;16247;50.840;4.382;2022-11-18T03:48:59;5.63;;;2.03;;
29206;SDS011;16247;50.840;4.382;2022-11-18T03:51:28;6.05;;;2.33;;
29206;SDS011;16247;50.840;4.382;2022-11-18T03:54:05;8.82;;;2.63;;
29206;SDS011;16247;50.840;4.382;2022-11-18T03:56:37;6.07;;;2.35;;
29206;SDS011;16247;50.840;4.382;2022-11-18T03:59:11;9.63;;;1.80;;
29206;SDS011;16247;50.840;4.382;2022-11-18T04:01:48;8.27;;;2.30;;
29206;SDS011;16247;50.840;4.382;2022-11-18T04:04:20;5.28;;;2.55;;
29206;SDS011;16247;50.840;4.382;2022-11-18T04:06:48;6.03;;;2.08;;
29206;SDS011;16247;50.840;4.382;2022-11-18T04:12:13;4.85;;;1.90;;
29206;SDS011;16247;50.840;4.382;2022-11-18T04:14:42;6.70;;;2.20;;
29206;SDS011;16247;50.840;4.382;2022-11-18T04:19:37;6.32;;;1.90;;
29206;SDS011;16247;50.840;4.382;2022-11-18T04:22:04;6.43;;;2.25;;
29206;SDS011;16247;50.840;4.382;2022-11-18T04:24:30;5.60;;;2.20;;
29206;SDS011;16247;50.840;4.382;2022-11-18T04:26:57;6.20;;;2.67;;
29206;SDS011;16247;50.840;4.382;2022-11-18T04:29:23;6.60;;;2.03;;
29206;SDS011;16247;50.840;4.382;2022-11-18T04:31:49;7.43;;;2.20;;
29206;SDS011;16247;50.840;4.382;2022-11-18T04:34:14;4.43;;;2.78;;
29206;SDS011;16247;50.840;4.382;2022-11-18T04:36:40;6.68;;;2.35;;
29206;SDS011;16247;50.840;4.382;2022-11-18T04:39:06;4.75;;;2.50;;
29206;SDS011;16247;50.840;4.382;2022-11-18T04:41:32;7.25;;;2.72;;
29206;SDS011;16247;50.840;4.382;2022-11-18T04:44:17;9.25;;;2.13;;
29206;SDS011;16247;50.840;4.382;2022-11-18T04:46:44;4.00;;;2.40;;
29206;SDS011;16247;50.840;4.382;2022-11-18T04:49:10;6.57;;;2.30;;
29206;SDS011;16247;50.840;4.382;2022-11-18T04:51:37;8.05;;;2.67;;
29206;SDS011;16247;50.840;4.382;2022-11-18T04:54:04;5.57;;;1.83;;
29206;SDS011;16247;50.840;4.382;2022-11-18T04:56:30;6.85;;;2.53;;
29206;SDS011;16247;50.840;4.382;2022-11-18T04:59:02;6.18;;;2.28;;
29206;SDS011;16247;50.840;4.382;2022-11-18T05:01:38;9.18;;;2.50;;
29206;SDS011;16247;50.840;4.382;2022-11-18T05:04:11;7.90;;;2.33;;
29206;SDS011;16247;50.840;4.382;2022-11-18T05:09:08;6.03;;;2.40;;
29206;SDS011;16247;50.840;4.382;2022-11-18T05:11:36;5.75;;;2.03;;
29206;SDS011;16247;50.840;4.382;2022-11-18T05:14:25;6.57;;;2.13;;
29206;SDS011;16247;50.840;4.382;2022-11-18T05:16:53;4.50;;;1.75;;
29206;SDS011;16247;50.840;4.382;2022-11-18T05:19:20;6.45;;;2.15;;
29206;SDS011;16247;50.840;4.382;2022-11-18T05:21:46;8.65;;;2.33;;
29206;SDS011;16247;50.840;4.382;2022-11-18T05:24:12;7.65;;;2.28;;
29206;SDS011;16247;50.840;4.382;2022-11-18T05:26:38;9.73;;;2.28;;
29206;SDS011;16247;50.840;4.382;2022-11-18T05:29:04;10.13;;;2.55;;
29206;SDS011;16247;50.840;4.382;2022-11-18T05:31:31;12.65;;;3.08;;
29206;SDS011;16247;50.840;4.382;2022-11-18T05:33:57;8.75;;;2.17;;
29206;SDS011;16247;50.840;4.382;2022-11-18T05:36:23;7.05;;;2.30;;
29206;SDS011;16247;50.840;4.382;2022-11-18T05:38:48;8.05;;;2.05;;
29206;SDS011;16247;50.840;4.382;2022-11-18T05:41:15;9.73;;;3.10;;
29206;SDS011;16247;50.840;4.382;2022-11-18T05:43:59;9.40;;;2.30;;
29206;SDS011;16247;50.840;4.382;2022-11-18T05:46:27;6.63;;;1.70;;
29206;SDS011;16247;50.840;4.382;2022-11-18T05:48:55;6.75;;;2.10;;
29206;SDS011;16247;50.840;4.382;2022-11-18T05:51:20;10.45;;;2.83;;
29206;SDS011;16247;50.840;4.382;2022-11-18T05:53:48;6.72;;;2.75;;
29206;SDS011;16247;50.840;4.382;2022-11-18T05:58:46;14.48;;;2.85;;
29206;SDS011;16247;50.840;4.382;2022-11-18T06:01:13;10.15;;;2.55;;
29206;SDS011;16247;50.840;4.382;2022-11-18T06:03:43;6.97;;;2.13;;
29206;SDS011;16247;50.840;4.382;2022-11-18T06:06:09;6.75;;;1.88;;
29206;SDS011;16247;50.840;4.382;2022-11-18T06:08:42;7.18;;;2.67;;
29206;SDS011;16247;50.840;4.382;2022-11-18T06:14:15;11.32;;;3.15;;
29206;SDS011;16247;50.840;4.382;2022-11-18T06:17:02;13.68;;;2.55;;
29206;SDS011;16247;50.840;4.382;2022-11-18T06:20:00;9.43;;;2.72;;
29206;SDS011;16247;50.840;4.382;2022-11-18T06:22:34;10.50;;;2.97;;
29206;SDS011;16247;50.840;4.382;2022-11-18T06:24:59;6.68;;;2.40;;
29206;SDS011;16247;50.840;4.382;2022-11-18T06:27:28;6.82;;;2.13;;
29206;SDS011;16247;50.840;4.382;2022-11-18T06:29:58;8.05;;;2.47;;
29206;SDS011;16247;50.840;4.382;2022-11-18T06:32:23;17.70;;;3.95;;
29206;SDS011;16247;50.840;4.382;2022-11-18T06:34:49;12.80;;;2.47;;
29206;SDS011;16247;50.840;4.382;2022-11-18T06:37:16;8.93;;;2.17;;
29206;SDS011;16247;50.840;4.382;2022-11-18T06:39:47;8.63;;;2.45;;
29206;SDS011;16247;50.840;4.382;2022-11-18T06:42:13;5.45;;;2.50;;
29206;SDS011;16247;50.840;4.382;2022-11-18T06:44:59;9.05;;;2.67;;
29206;SDS011;16247;50.840;4.382;2022-11-18T06:47:27;7.67;;;2.83;;
29206;SDS011;16247;50.840;4.382;2022-11-18T06:49:53;9.85;;;3.13;;
29206;SDS011;16247;50.840;4.382;2022-11-18T06:52:18;10.68;;;3.28;;
29206;SDS011;16247;50.840;4.382;2022-11-18T06:54:44;9.35;;;2.65;;
29206;SDS011;16247;50.840;4.382;2022-11-18T06:57:09;5.88;;;2.65;;
29206;SDS011;16247;50.840;4.382;2022-11-18T06:59:35;9.73;;;2.83;;
29206;SDS011;16247;50.840;4.382;2022-11-18T07:02:01;10.45;;;3.22;;
29206;SDS011;16247;50.840;4.382;2022-11-18T07:04:28;8.70;;;2.28;;
29206;SDS011;16247;50.840;4.382;2022-11-18T07:06:53;6.20;;;2.92;;
29206;SDS011;16247;50.840;4.382;2022-11-18T07:09:20;9.82;;;4.22;;
29206;SDS011;16247;50.840;4.382;2022-11-18T07:11:46;9.30;;;2.28;;
29206;SDS011;16247;50.840;4.382;2022-11-18T07:14:11;11.73;;;2.78;;
29206;SDS011;16247;50.840;4.382;2022-11-18T07:16:38;6.28;;;2.10;;
29206;SDS011;16247;50.840;4.382;2022-11-18T07:19:11;7.93;;;2.50;;
29206;SDS011;16247;50.840;4.382;2022-11-18T07:21:38;5.90;;;2.63;;
29206;SDS011;16247;50.840;4.382;2022-11-18T07:24:07;13.13;;;2.63;;
29206;SDS011;16247;50.840;4.382;2022-11-18T07:26:35;7.25;;;2.72;;
29206;SDS011;16247;50.840;4.382;2022-11-18T07:29:04;7.38;;;2.47;;
29206;SDS011;16247;50.840;4.382;2022-11-18T07:31:37;8.50;;;2.35;;
29206;SDS011;16247;50.840;4.382;2022-11-18T07:34:05;5.35;;;1.90;;
29206;SDS011;16247;50.840;4.382;2022-11-18T07:36:31;14.70;;;2.47;;
29206;SDS011;16247;50.840;4.382;2022-11-18T07:41:28;8.90;;;2.50;;
29206;SDS011;16247;50.840;4.382;2022-11-18T07:43:55;11.68;;;2.30;;
29206;SDS011;16247;50.840;4.382;2022-11-18T07:46:32;8.43;;;2.55;;
29206;SDS011;16247;50.840;4.382;2022-11-18T07:49:00;8.13;;;2.35;;
29206;SDS011;16247;50.840;4.382;2022-11-18T07:53:54;5.60;;;1.90;;
29206;SDS011;16247;50.840;4.382;2022-11-18T07:56:24;19.00;;;3.90;;
29206;SDS011;16247;50.840;4.382;2022-11-18T07:58:53;8.93;;;2.97;;
29206;SDS011;16247;50.840;4.382;2022-11-18T08:01:22;7.93;;;2.78;;
29206;SDS011;16247;50.840;4.382;2022-11-18T08:03:50;12.35;;;2.83;;
29206;SDS011;16247;50.840;4.382;2022-11-18T08:06:16;11.05;;;2.10;;
29206;SDS011;16247;50.840;4.382;2022-11-18T08:08:50;9.43;;;2.65;;
29206;SDS011;16247;50.840;4.382;2022-11-18T08:13:47;10.70;;;2.53;;
29206;SDS011;16247;50.840;4.382;2022-11-18T08:16:15;11.80;;;2.92;;
29206;SDS011;16247;50.840;4.382;2022-11-18T08:18:42;10.00;;;2.83;;
29206;SDS011;16247;50.840;4.382;2022-11-18T08:21:11;11.55;;;2.40;;
29206;SDS011;16247;50.840;4.382;2022-11-18T08:23:41;7.03;;;2.50;;
29206;SDS011;16247;50.840;4.382;2022-11-18T08:26:12;7.70;;;2.35;;
29206;SDS011;16247;50.840;4.382;2022-11-18T08:28:39;7.20;;;3.88;;
29206;SDS011;16247;50.840;4.382;2022-11-18T08:31:10;9.32;;;3.13;;
29206;SDS011;16247;50.840;4.382;2022-11-18T08:33:46;11.27;;;2.88;;
29206;SDS011;16247;50.840;4.382;2022-11-18T08:36:16;10.95;;;2.90;;
29206;SDS011;16247;50.840;4.382;2022-11-18T08:38:45;10.57;;;3.20;;
29206;SDS011;16247;50.840;4.382;2022-11-18T08:41:22;10.25;;;3.50;;
29206;SDS011;16247;50.840;4.382;2022-11-18T08:43:57;13.15;;;4.55;;
29206;SDS011;16247;50.840;4.382;2022-11-18T08:46:24;10.15;;;3.60;;
29206;SDS011;16247;50.840;4.382;2022-11-18T08:48:49;5.95;;;3.00;;
29206;SDS011;16247;50.840;4.382;2022-11-18T08:51:15;7.50;;;3.38;;
29206;SDS011;16247;50.840;4.382;2022-11-18T08:53:47;6.85;;;2.90;;
29206;SDS011;16247;50.840;4.382;2022-11-18T08:56:20;6.07;;;2.90;;
29206;SDS011;16247;50.840;4.382;2022-11-18T08:58:47;9.40;;;3.13;;
29206;SDS011;16247;50.840;4.382;2022-11-18T09:01:17;16.90;;;3.25;;
29206;SDS011;16247;50.840;4.382;2022-11-18T09:03:43;13.52;;;4.18;;
29206;SDS011;16247;50.840;4.382;2022-11-18T09:06:11;7.13;;;3.20;;
29206;SDS011;16247;50.840;4.382;2022-11-18T09:08:44;6.47;;;2.63;;
29206;SDS011;16247;50.840;4.382;2022-11-18T09:11:13;15.43;;;3.20;;
29206;SDS011;16247;50.840;4.382;2022-11-18T09:13:41;10.38;;;2.83;;
29206;SDS011;16247;50.840;4.382;2022-11-18T09:16:09;7.78;;;2.80;;
29206;SDS011;16247;50.840;4.382;2022-11-18T09:18:35;7.07;;;2.35;;
29206;SDS011;16247;50.840;4.382;2022-11-18T09:21:02;9.38;;;2.97;;
29206;SDS011;16247;50.840;4.382;2022-11-18T09:23:31;8.02;;;2.80;;
29206;SDS011;16247;50.840;4.382;2022-11-18T09:26:06;6.57;;;2.47;;
29206;SDS011;16247;50.840;4.382;2022-11-18T09:31:13;8.25;;;2.58;;
29206;SDS011;16247;50.840;4.382;2022-11-18T09:33:41;7.25;;;2.90;;
29206;SDS011;16247;50.840;4.382;2022-11-18T09:36:14;5.70;;;2.17;;
29206;SDS011;16247;50.840;4.382;2022-11-18T09:38:47;9.88;;;2.47;;
29206;SDS011;16247;50.840;4.382;2022-11-18T09:49:31;8.43;;;2.13;;
29206;SDS011;16247;50.840;4.382;2022-11-18T09:52:02;8.30;;;2.03;;
29206;SDS011;16247;50.840;4.382;2022-11-18T09:54:33;7.72;;;2.33;;
29206;SDS011;16247;50.840;4.382;2022-11-18T09:57:01;10.70;;;2.40;;
29206;SDS011;16247;50.840;4.382;2022-11-18T09:59:34;7.05;;;2.45;;
29206;SDS011;16247;50.840;4.382;2022-11-18T10:02:18;5.95;;;2.65;;
29206;SDS011;16247;50.840;4.382;2022-11-18T10:04:53;9.02;;;2.25;;
29206;SDS011;16247;50.840;4.382;2022-11-18T10:07:23;5.07;;;2.63;;
29206;SDS011;16247;50.840;4.382;2022-11-18T10:10:16;5.88;;;2.15;;
29206;SDS011;16247;50.840;4.382;2022-11-18T10:21:41;5.43;;;1.90;;
29206;SDS011;16247;50.840;4.382;2022-11-18T10:24:35;5.80;;;2.30;;
29206;SDS011;16247;50.840;4.382;2022-11-18T10:27:10;4.80;;;1.83;;
29206;SDS011;16247;50.840;4.382;2022-11-18T10:29:44;6.57;;;2.58;;
29206;SDS011;16247;50.840;4.382;2022-11-18T10:35:22;4.40;;;1.67;;
29206;SDS011;16247;50.840;4.382;2022-11-18T10:38:03;5.07;;;1.50;;
29206;SDS011;16247;50.840;4.382;2022-11-18T10:40:31;8.43;;;2.45;;
29206;SDS011;16247;50.840;4.382;2022-11-18T10:43:01;6.15;;;2.00;;
29206;SDS011;16247;50.840;4.382;2022-11-18T10:48:07;7.53;;;2.13;;
29206;SDS011;16247;50.840;4.382;2022-11-18T10:50:41;5.60;;;1.65;;
29206;SDS011;16247;50.840;4.382;2022-11-18T10:56:12;7.18;;;2.05;;
29206;SDS011;16247;50.840;4.382;2022-11-18T10:58:42;7.40;;;1.65;;
29206;SDS011;16247;50.840;4.382;2022-11-18T11:01:20;6.35;;;1.55;;
29206;SDS011;16247;50.840;4.382;2022-11-18T11:04:10;11.48;;;2.28;;
29206;SDS011;16247;50.840;4.382;2022-11-18T11:06:38;8.20;;;2.13;;
29206;SDS011;16247;50.840;4.382;2022-11-18T11:09:06;5.75;;;2.20;;
29206;SDS011;16247;50.840;4.382;2022-11-18T11:11:35;4.60;;;1.67;;
29206;SDS011;16247;50.840;4.382;2022-11-18T11:14:28;9.57;;;1.63;;
29206;SDS011;16247;50.840;4.382;2022-11-18T11:19:36;4.00;;;1.75;;
29206;SDS011;16247;50.840;4.382;2022-11-18T11:22:15;6.05;;;1.70;;
29206;SDS011;16247;50.840;4.382;2022-11-18T11:24:41;6.55;;;1.50;;
29206;SDS011;16247;50.840;4.382;2022-11-18T11:27:52;5.07;;;1.60;;
29206;SDS011;16247;50.840;4.382;2022-11-18T11:30:04;6.93;;;1.75;;
29206;SDS011;16247;50.840;4.382;2022-11-18T11:41:23;4.65;;;1.50;;
29206;SDS011;16247;50.840;4.382;2022-11-18T11:52:04;6.22;;;1.63;;
29206;SDS011;16247;50.840;4.382;2022-11-18T11:54:54;3.67;;;1.40;;
29206;SDS011;16247;50.840;4.382;2022-11-18T12:00:25;8.85;;;1.77;;
29206;SDS011;16247;50.840;4.382;2022-11-18T12:02:55;9.77;;;3.20;;
29206;SDS011;16247;50.840;4.382;2022-11-18T12:07:59;12.18;;;2.67;;
29206;SDS011;16247;50.840;4.382;2022-11-18T12:21:07;6.00;;;2.50;;
29206;SDS011;16247;50.840;4.382;2022-11-18T12:26:55;6.05;;;2.65;;
29206;SDS011;16247;50.840;4.382;2022-11-18T12:29:23;8.07;;;2.00;;
29206;SDS011;16247;50.840;4.382;2022-11-18T12:32:02;6.55;;;2.13;;
29206;SDS011;16247;50.840;4.382;2022-11-18T12:34:57;6.68;;;1.98;;
29206;SDS011;16247;50.840;4.382;2022-11-18T12:42:35;5.80;;;1.58;;
29206;SDS011;16247;50.840;4.382;2022-11-18T12:50:55;9.20;;;2.25;;
29206;SDS011;16247;50.840;4.382;2022-11-18T12:58:45;5.53;;;1.80;;
29206;SDS011;16247;50.840;4.382;2022-11-18T13:01:12;6.65;;;2.00;;
29206;SDS011;16247;50.840;4.382;2022-11-18T13:03:41;5.95;;;2.00;;
29206;SDS011;16247;50.840;4.382;2022-11-18T13:06:27;7.95;;;2.08;;
29206;SDS011;16247;50.840;4.382;2022-11-18T13:09:00;7.63;;;2.30;;
29206;SDS011;16247;50.840;4.382;2022-11-18T13:11:28;4.25;;;2.10;;
29206;SDS011;16247;50.840;4.382;2022-11-18T13:14:19;7.82;;;2.17;;
29206;SDS011;16247;50.840;4.382;2022-11-18T13:20:38;4.22;;;1.50;;
29206;SDS011;16247;50.840;4.382;2022-11-18T13:26:05;9.38;;;1.80;;
29206;SDS011;16247;50.840;4.382;2022-11-18T13:28:58;7.35;;;1.80;;
29206;SDS011;16247;50.840;4.382;2022-11-18T13:34:52;6.30;;;2.03;;
29206;SDS011;16247;50.840;4.382;2022-11-18T13:37:27;13.13;;;2.50;;
29206;SDS011;16247;50.840;4.382;2022-11-18T13:39:55;7.45;;;2.20;;
29206;SDS011;16247;50.840;4.382;2022-11-18T13:42:22;8.20;;;2.20;;
29206;SDS011;16247;50.840;4.382;2022-11-18T13:44:55;4.93;;;1.88;;
29206;SDS011;16247;50.840;4.382;2022-11-18T13:47:33;10.35;;;2.90;;
29206;SDS011;16247;50.840;4.382;2022-11-18T13:50:11;8.50;;;2.60;;
29206;SDS011;16247;50.840;4.382;2022-11-18T13:53:32;7.28;;;2.35;;
29206;SDS011;16247;50.840;4.382;2022-11-18T13:55:51;8.02;;;2.15;;
29206;SDS011;16247;50.840;4.382;2022-11-18T13:58:33;5.00;;;2.20;;
29206;SDS011;16247;50.840;4.382;2022-11-18T14:01:27;8.35;;;2.53;;
29206;SDS011;16247;50.840;4.382;2022-11-18T14:04:06;6.03;;;1.92;;
29206;SDS011;16247;50.840;4.382;2022-11-18T14:06:42;8.27;;;1.95;;
29206;SDS011;16247;50.840;4.382;2022-11-18T14:17:50;9.45;;;2.15;;
29206;SDS011;16247;50.840;4.382;2022-11-18T14:20:18;8.13;;;2.25;;
29206;SDS011;16247;50.840;4.382;2022-11-18T14:22:45;7.40;;;2.53;;
29206;SDS011;16247;50.840;4.382;2022-11-18T14:25:21;11.77;;;2.92;;
29206;SDS011;16247;50.840;4.382;2022-11-18T14:28:36;6.05;;;1.88;;
29206;SDS011;16247;50.840;4.382;2022-11-18T14:30:57;10.75;;;3.08;;
29206;SDS011;16247;50.840;4.382;2022-11-18T14:33:23;8.13;;;2.22;;
29206;SDS011;16247;50.840;4.382;2022-11-18T14:40:59;7.18;;;2.55;;
29206;SDS011;16247;50.840;4.382;2022-11-18T14:43:27;9.20;;;2.97;;
29206;SDS011;16247;50.840;4.382;2022-11-18T14:45:58;13.43;;;3.20;;
29206;SDS011;16247;50.840;4.382;2022-11-18T14:48:27;15.27;;;3.85;;
29206;SDS011;16247;50.840;4.382;2022-11-18T14:50:55;7.70;;;2.42;;
29206;SDS011;16247;50.840;4.382;2022-11-18T14:53:20;10.10;;;2.75;;
29206;SDS011;16247;50.840;4.382;2022-11-18T14:55:51;12.57;;;3.45;;
29206;SDS011;16247;50.840;4.382;2022-11-18T14:58:18;7.55;;;2.30;;
29206;SDS011;16247;50.840;4.382;2022-11-18T15:00:47;13.23;;;3.63;;
29206;SDS011;16247;50.840;4.382;2022-11-18T15:03:15;11.25;;;3.03;;
29206;SDS011;16247;50.840;4.382;2022-11-18T15:05:42;10.38;;;2.60;;
29206;SDS011;16247;50.840;4.382;2022-11-18T15:08:08;10.13;;;2.80;;
29206;SDS011;16247;50.840;4.382;2022-11-18T15:10:34;8.05;;;2.58;;
29206;SDS011;16247;50.840;4.382;2022-11-18T15:13:00;8.38;;;2.33;;
29206;SDS011;16247;50.840;4.382;2022-11-18T15:15:26;7.95;;;2.35;;
29206;SDS011;16247;50.840;4.382;2022-11-18T15:17:54;11.38;;;2.67;;
29206;SDS011;16247;50.840;4.382;2022-11-18T15:20:20;4.55;;;2.00;;
29206;SDS011;16247;50.840;4.382;2022-11-18T15:22:47;17.42;;;2.92;;
29206;SDS011;16247;50.840;4.382;2022-11-18T15:25:13;8.88;;;2.35;;
29206;SDS011;16247;50.840;4.382;2022-11-18T15:27:38;4.93;;;2.17;;
29206;SDS011;16247;50.840;4.382;2022-11-18T15:30:04;13.85;;;2.83;;
29206;SDS011;16247;50.840;4.382;2022-11-18T15:32:31;9.60;;;3.33;;
29206;SDS011;16247;50.840;4.382;2022-11-18T15:34:57;8.13;;;2.15;;
29206;SDS011;16247;50.840;4.382;2022-11-18T15:37:22;7.32;;;2.05;;
29206;SDS011;16247;50.840;4.382;2022-11-18T15:39:48;6.63;;;2.10;;
29206;SDS011;16247;50.840;4.382;2022-11-18T15:42:16;7.25;;;3.03;;
29206;SDS011;16247;50.840;4.382;2022-11-18T15:44:42;7.85;;;2.10;;
29206;SDS011;16247;50.840;4.382;2022-11-18T15:47:09;10.00;;;2.05;;
29206;SDS011;16247;50.840;4.382;2022-11-18T15:49:37;10.25;;;2.75;;
29206;SDS011;16247;50.840;4.382;2022-11-18T15:52:08;8.93;;;1.98;;
29206;SDS011;16247;50.840;4.382;2022-11-18T15:57:05;3.80;;;1.55;;
29206;SDS011;16247;50.840;4.382;2022-11-18T15:59:51;8.82;;;3.00;;
29206;SDS011;16247;50.840;4.382;2022-11-18T16:02:16;7.95;;;2.03;;
29206;SDS011;16247;50.840;4.382;2022-11-18T16:11:14;7.10;;;2.08;;
29206;SDS011;16247;50.840;4.382;2022-11-18T16:22:55;7.32;;;2.10;;
29206;SDS011;16247;50.840;4.382;2022-11-18T16:25:25;6.22;;;2.38;;
29206;SDS011;16247;50.840;4.382;2022-11-18T16:28:07;6.00;;;2.17;;
29206;SDS011;16247;50.840;4.382;2022-11-18T16:30:36;9.80;;;3.22;;
29206;SDS011;16247;50.840;4.382;2022-11-18T16:35:51;9.18;;;2.30;;
29206;SDS011;16247;50.840;4.382;2022-11-18T16:38:17;8.55;;;2.40;;
29206;SDS011;16247;50.840;4.382;2022-11-18T16:40:43;10.13;;;2.97;;
29206;SDS011;16247;50.840;4.382;2022-11-18T16:43:10;11.15;;;2.72;;
29206;SDS011;16247;50.840;4.382;2022-11-18T16:45:36;7.07;;;2.33;;
29206;SDS011;16247;50.840;4.382;2022-11-18T16:48:02;6.60;;;2.55;;
29206;SDS011;16247;50.840;4.382;2022-11-18T16:50:27;8.35;;;3.38;;
29206;SDS011;16247;50.840;4.382;2022-11-18T16:52:53;9.68;;;2.80;;
29206;SDS011;16247;50.840;4.382;2022-11-18T16:55:19;7.70;;;2.00;;
29206;SDS011;16247;50.840;4.382;2022-11-18T16:57:46;5.45;;;3.50;;
29206;SDS011;16247;50.840;4.382;2022-11-18T17:00:18;8.10;;;2.65;;
29206;SDS011;16247;50.840;4.382;2022-11-18T17:02:48;6.50;;;2.25;;
29206;SDS011;16247;50.840;4.382;2022-11-18T17:05:16;7.38;;;2.80;;
29206;SDS011;16247;50.840;4.382;2022-11-18T17:07:42;5.00;;;2.30;;
29206;SDS011;16247;50.840;4.382;2022-11-18T17:10:09;9.88;;;3.53;;
29206;SDS011;16247;50.840;4.382;2022-11-18T17:12:47;9.27;;;3.40;;
29206;SDS011;16247;50.840;4.382;2022-11-18T17:15:18;13.00;;;3.58;;
29206;SDS011;16247;50.840;4.382;2022-11-18T17:17:46;7.30;;;3.08;;
29206;SDS011;16247;50.840;4.382;2022-11-18T17:20:15;6.78;;;2.88;;
29206;SDS011;16247;50.840;4.382;2022-11-18T17:22:45;9.05;;;3.70;;
29206;SDS011;16247;50.840;4.382;2022-11-18T17:25:13;7.60;;;3.08;;
29206;SDS011;16247;50.840;4.382;2022-11-18T17:27:39;9.30;;;2.97;;
29206;SDS011;16247;50.840;4.382;2022-11-18T17:30:05;6.97;;;2.97;;
29206;SDS011;16247;50.840;4.382;2022-11-18T17:32:32;6.30;;;3.42;;
29206;SDS011;16247;50.840;4.382;2022-11-18T17:34:59;10.15;;;4.13;;
29206;SDS011;16247;50.840;4.382;2022-11-18T17:37:29;10.52;;;4.43;;
29206;SDS011;16247;50.840;4.382;2022-11-18T17:39:56;8.43;;;5.40;;
29206;SDS011;16247;50.840;4.382;2022-11-18T17:42:23;10.18;;;5.15;;
29206;SDS011;16247;50.840;4.382;2022-11-18T17:44:50;10.25;;;6.18;;
29206;SDS011;16247;50.840;4.382;2022-11-18T17:47:16;11.05;;;5.25;;
29206;SDS011;16247;50.840;4.382;2022-11-18T17:49:42;12.18;;;6.07;;
29206;SDS011;16247;50.840;4.382;2022-11-18T17:52:17;12.02;;;5.10;;
29206;SDS011;16247;50.840;4.382;2022-11-18T17:54:43;12.07;;;4.70;;
29206;SDS011;16247;50.840;4.382;2022-11-18T17:57:09;7.28;;;4.28;;
29206;SDS011;16247;50.840;4.382;2022-11-18T17:59:36;15.85;;;4.50;;
29206;SDS011;16247;50.840;4.382;2022-11-18T18:02:05;13.73;;;4.55;;
29206;SDS011;16247;50.840;4.382;2022-11-18T18:04:37;5.90;;;4.00;;
29206;SDS011;16247;50.840;4.382;2022-11-18T18:07:02;10.40;;;4.82;;
29206;SDS011;16247;50.840;4.382;2022-11-18T18:09:28;9.48;;;4.75;;
29206;SDS011;16247;50.840;4.382;2022-11-18T18:11:58;9.80;;;4.63;;
29206;SDS011;16247;50.840;4.382;2022-11-18T18:14:24;9.23;;;4.72;;